Time;durP1;ratioP1;P1;durP2;ratioP2;P2;SDS_P1;SDS_P2;PMS_P1;PMS_P2;Temp;Humidity;BMP_temperature;BMP_pressure;BME280_temperature;BME280_humidity;BME280_pressure;Samples;Min_cycle;Max_cycle;Signal;HPM_P1;HPM_P2
2022/09/15 00:00:20;;;;;;;7.97;4.37;;;18.70;89.80;;;;;;5004263;28;20492;-50
2022/09/15 00:02:47;;;;;;;4.53;4.13;;;18.70;89.80;;;;;;5004851;28;20488;-50
2022/09/15 00:05:13;;;;;;;7.63;3.67;;;18.80;89.80;;;;;;4988099;28;20860;-50
2022/09/15 00:07:40;;;;;;;5.60;4.70;;;18.80;89.80;;;;;;4987247;28;20457;-50
2022/09/15 00:10:08;;;;;;;4.60;4.20;;;18.70;89.80;;;;;;4986675;28;20830;-50
2022/09/15 00:12:34;;;;;;;4.77;4.10;;;18.70;89.80;;;;;;5006131;28;20484;-50
2022/09/15 00:15:01;;;;;;;4.03;3.63;;;18.70;89.80;;;;;;5003312;28;20978;-50
2022/09/15 00:17:28;;;;;;;4.00;3.60;;;18.70;89.80;;;;;;5003770;28;20496;-50
2022/09/15 00:19:57;;;;;;;6.30;4.87;;;18.60;89.80;;;;;;5002372;28;20590;-50
2022/09/15 00:22:24;;;;;;;6.43;4.43;;;18.60;89.80;;;;;;5006039;28;20543;-50
2022/09/15 00:24:51;;;;;;;8.20;4.00;;;18.70;89.80;;;;;;5002630;28;20489;-50
2022/09/15 00:27:17;;;;;;;5.60;3.47;;;18.70;89.80;;;;;;5004472;28;20563;-50
2022/09/15 00:29:44;;;;;;;4.33;3.80;;;18.70;89.80;;;;;;5006245;28;20464;-50
2022/09/15 00:32:11;;;;;;;6.20;4.60;;;18.70;89.80;;;;;;4984484;28;20468;-50
2022/09/15 00:34:37;;;;;;;4.17;3.80;;;18.70;89.80;;;;;;5001491;28;20506;-50
2022/09/15 00:37:04;;;;;;;13.33;4.30;;;18.60;89.80;;;;;;5001839;28;20457;-50
2022/09/15 00:39:31;;;;;;;6.50;3.87;;;18.70;89.80;;;;;;5004768;28;20491;-50
2022/09/15 00:41:58;;;;;;;4.03;3.60;;;18.70;89.80;;;;;;5005581;28;20519;-50
2022/09/15 00:44:43;;;;;;;6.20;4.40;;;18.70;89.80;;;;;;5004368;28;20554;-50
2022/09/15 00:47:10;;;;;;;7.50;4.10;;;18.70;89.80;;;;;;5002849;28;20571;-50
2022/09/15 00:49:48;;;;;;;7.60;4.07;;;18.70;89.80;;;;;;5000520;28;20463;-50
2022/09/15 00:52:19;;;;;;;5.47;3.80;;;18.70;89.80;;;;;;5005301;28;20507;-50
2022/09/15 00:55:16;;;;;;;4.20;3.80;;;18.70;89.80;;;;;;4986104;28;20496;-50
2022/09/15 00:57:57;;;;;;;4.40;4.00;;;18.70;89.80;;;;;;4985075;28;20533;-50
2022/09/15 01:00:26;;;;;;;3.87;3.47;;;18.70;89.80;;;;;;5000807;28;20484;-50
2022/09/15 01:02:54;;;;;;;6.47;4.50;;;18.70;89.80;;;;;;4998486;28;20976;-50
2022/09/15 01:05:24;;;;;;;4.50;3.70;;;18.80;89.80;;;;;;5002842;28;20499;-50
2022/09/15 01:08:00;;;;;;;4.23;3.83;;;18.80;89.80;;;;;;5002713;28;20555;-50
2022/09/15 01:10:36;;;;;;;14.57;4.80;;;18.80;89.80;;;;;;4997212;28;20463;-50
2022/09/15 01:13:07;;;;;;;6.90;4.03;;;18.80;89.80;;;;;;5002203;28;20464;-50
2022/09/15 01:16:04;;;;;;;6.77;4.73;;;18.80;89.80;;;;;;4978211;28;20495;-50
2022/09/15 01:18:59;;;;;;;5.53;4.17;;;18.70;89.80;;;;;;4999251;28;20468;-50
2022/09/15 01:21:50;;;;;;;5.80;4.17;;;18.70;89.80;;;;;;4996337;28;21021;-50
2022/09/15 01:24:41;;;;;;;10.37;4.80;;;18.80;89.80;;;;;;5001418;28;20510;-50
2022/09/15 01:27:07;;;;;;;5.43;4.33;;;18.80;89.80;;;;;;5005010;28;20546;-50
2022/09/15 01:30:09;;;;;;;7.23;4.30;;;18.80;89.80;;;;;;5000684;28;20820;-50
2022/09/15 01:35:39;;;;;;;6.03;4.53;;;18.70;89.80;;;;;;5002575;28;20507;-50
2022/09/15 01:38:09;;;;;;;11.63;5.33;;;18.70;89.80;;;;;;4984242;28;20471;-50
2022/09/15 01:40:47;;;;;;;10.63;3.90;;;18.60;89.80;;;;;;4981243;28;20578;-50
2022/09/15 01:43:15;;;;;;;5.00;4.50;;;18.60;89.80;;;;;;5003310;28;20460;-50
2022/09/15 01:45:45;;;;;;;8.00;4.10;;;18.60;89.80;;;;;;5002498;28;20491;-50
2022/09/15 01:48:12;;;;;;;8.37;5.03;;;18.60;89.80;;;;;;5003980;28;20962;-50
2022/09/15 01:50:44;;;;;;;6.33;4.80;;;18.60;89.80;;;;;;5008344;28;20481;-50
2022/09/15 01:53:15;;;;;;;6.90;4.57;;;18.60;89.80;;;;;;5005272;28;20472;-50
2022/09/15 01:56:04;;;;;;;8.17;5.67;;;18.60;89.80;;;;;;5005069;28;20465;-50
2022/09/15 01:58:32;;;;;;;7.97;4.73;;;18.60;89.80;;;;;;4972939;28;20522;-50
2022/09/15 02:01:14;;;;;;;7.67;5.33;;;18.60;89.80;;;;;;5003111;28;20547;-50
2022/09/15 02:03:59;;;;;;;7.33;5.03;;;18.60;89.80;;;;;;5005350;28;20463;-50
2022/09/15 02:06:34;;;;;;;10.30;5.30;;;18.60;89.80;;;;;;5005381;28;20902;-50
2022/09/15 02:09:23;;;;;;;4.90;4.30;;;18.50;89.80;;;;;;5004915;28;20464;-50
2022/09/15 02:12:31;;;;;;;8.77;5.20;;;18.50;89.80;;;;;;5009045;28;20939;-50
2022/09/15 02:15:06;;;;;;;5.23;3.77;;;18.50;89.80;;;;;;5004950;28;20953;-50
2022/09/15 02:17:37;;;;;;;4.43;3.23;;;18.50;89.80;;;;;;5005248;28;20472;-50
2022/09/15 02:20:16;;;;;;;4.67;4.13;;;18.40;89.80;;;;;;5008724;28;20538;-50
2022/09/15 02:22:49;;;;;;;5.50;4.20;;;18.40;89.80;;;;;;5007575;28;20863;-50
2022/09/15 02:25:22;;;;;;;3.90;3.33;;;18.40;89.80;;;;;;4990714;28;20456;-50
2022/09/15 02:27:53;;;;;;;5.30;4.33;;;18.40;89.80;;;;;;4990661;28;20452;-50
2022/09/15 02:30:21;;;;;;;5.83;4.30;;;18.40;89.80;;;;;;5006312;28;20982;-50
2022/09/15 02:32:56;;;;;;;9.63;4.30;;;18.40;89.80;;;;;;5005856;28;20459;-50
2022/09/15 02:35:27;;;;;;;7.23;5.03;;;18.40;89.80;;;;;;5007734;28;20455;-50
2022/09/15 02:37:55;;;;;;;10.97;4.90;;;18.40;89.80;;;;;;5005126;28;20499;-50
2022/09/15 02:40:22;;;;;;;7.23;4.57;;;18.40;89.80;;;;;;5008069;28;20546;-50
2022/09/15 02:42:55;;;;;;;8.27;4.20;;;18.30;89.80;;;;;;5008941;28;21048;-50
2022/09/15 02:45:23;;;;;;;10.90;4.70;;;18.30;89.80;;;;;;5007858;28;20453;-50
2022/09/15 02:47:50;;;;;;;4.50;3.90;;;18.30;89.80;;;;;;5004651;28;20476;-50
2022/09/15 02:50:17;;;;;;;5.30;3.57;;;18.30;89.80;;;;;;4990329;28;20878;-50
2022/09/15 02:52:44;;;;;;;7.83;3.30;;;18.20;89.80;;;;;;5006195;28;20453;-50
2022/09/15 02:55:11;;;;;;;5.10;3.30;;;18.20;89.80;;;;;;4990957;28;20559;-50
2022/09/15 02:57:38;;;;;;;5.37;2.90;;;18.20;89.80;;;;;;5002434;28;20906;-50
2022/09/15 03:00:12;;;;;;;6.93;3.50;;;18.20;89.80;;;;;;4987285;28;20471;-50
2022/09/15 03:02:44;;;;;;;5.57;2.90;;;18.10;89.80;;;;;;5001268;28;20494;-50
2022/09/15 03:05:14;;;;;;;4.13;2.60;;;18.10;89.80;;;;;;5002843;28;20550;-50
2022/09/15 03:07:40;;;;;;;3.80;2.50;;;18.10;89.80;;;;;;5001933;28;20464;-50
2022/09/15 03:10:09;;;;;;;2.77;1.90;;;18.00;89.80;;;;;;4986336;28;20892;-50
2022/09/15 03:12:40;;;;;;;4.47;2.20;;;17.90;89.80;;;;;;4984196;28;20629;-50
2022/09/15 03:15:08;;;;;;;2.50;2.30;;;17.90;89.80;;;;;;5006885;28;20448;-50
2022/09/15 03:17:36;;;;;;;5.20;2.30;;;17.90;89.80;;;;;;5003482;28;20558;-50
2022/09/15 03:20:05;;;;;;;3.20;2.67;;;17.90;89.80;;;;;;5007687;28;20460;-50
2022/09/15 03:22:33;;;;;;;3.20;2.90;;;17.90;89.80;;;;;;5000650;28;20535;-50
2022/09/15 03:25:00;;;;;;;4.17;3.13;;;17.90;89.80;;;;;;4988873;28;20452;-50
2022/09/15 03:27:26;;;;;;;4.17;3.47;;;17.90;89.80;;;;;;4986856;28;20495;-50
2022/09/15 03:29:53;;;;;;;5.10;4.13;;;17.90;89.80;;;;;;5005922;28;21053;-50
2022/09/15 03:32:20;;;;;;;6.47;5.10;;;17.90;89.80;;;;;;5001783;28;20492;-50
2022/09/15 03:34:46;;;;;;;8.80;6.83;;;17.80;89.80;;;;;;5003001;28;21468;-50
2022/09/15 03:37:13;;;;;;;11.77;9.87;;;17.80;89.80;;;;;;5004158;28;20898;-50
2022/09/15 03:39:40;;;;;;;17.00;12.30;;;17.70;89.80;;;;;;4984096;28;20511;-50
2022/09/15 03:42:07;;;;;;;16.53;11.80;;;17.70;89.80;;;;;;4983394;28;20521;-50
2022/09/15 03:44:34;;;;;;;22.63;14.87;;;17.60;89.80;;;;;;5001101;28;20957;-50
2022/09/15 03:47:02;;;;;;;22.30;14.97;;;17.60;89.80;;;;;;5003442;28;20550;-50
2022/09/15 03:49:29;;;;;;;24.17;17.30;;;17.50;89.80;;;;;;5001309;28;20518;-50
2022/09/15 03:51:57;;;;;;;23.53;16.00;;;17.50;89.80;;;;;;5001844;28;20579;-50
2022/09/15 03:54:26;;;;;;;23.60;15.90;;;17.50;89.80;;;;;;5005349;28;20476;-50
2022/09/15 03:56:53;;;;;;;25.33;16.20;;;17.50;89.80;;;;;;5003463;28;20520;-50
2022/09/15 03:59:20;;;;;;;23.07;16.73;;;17.40;89.80;;;;;;4970593;28;20988;-50
2022/09/15 04:01:47;;;;;;;26.53;17.10;;;17.40;89.80;;;;;;5003686;28;20886;-50
2022/09/15 04:04:14;;;;;;;23.87;17.70;;;17.40;89.80;;;;;;4984608;28;20488;-50
2022/09/15 04:06:41;;;;;;;26.20;18.57;;;17.40;89.80;;;;;;5003990;28;20551;-52
2022/09/15 04:09:07;;;;;;;27.30;19.43;;;17.40;89.80;;;;;;5004341;28;21043;-50
2022/09/15 04:11:34;;;;;;;31.30;20.93;;;17.30;89.80;;;;;;4988351;28;20804;-50
2022/09/15 04:14:01;;;;;;;29.77;19.40;;;17.30;89.80;;;;;;4986273;28;20497;-50
2022/09/15 04:16:27;;;;;;;29.50;21.43;;;17.30;89.80;;;;;;5000757;28;20488;-50
2022/09/15 04:18:55;;;;;;;31.50;20.27;;;17.20;89.80;;;;;;4985802;28;20691;-50
2022/09/15 04:21:23;;;;;;;29.00;19.40;;;17.20;89.80;;;;;;4999025;28;20599;-50
2022/09/15 04:23:50;;;;;;;31.77;19.37;;;17.10;89.80;;;;;;5000537;28;20490;-50
2022/09/15 04:26:30;;;;;;;31.53;18.30;;;17.10;89.80;;;;;;5000037;28;20453;-50
2022/09/15 04:28:57;;;;;;;28.93;18.00;;;17.10;89.80;;;;;;5001544;28;20704;-50
2022/09/15 04:31:31;;;;;;;23.87;15.90;;;17.20;89.80;;;;;;4999316;28;20471;-50
2022/09/15 04:33:58;;;;;;;27.80;17.63;;;17.10;89.80;;;;;;5000263;28;20472;-50
2022/09/15 04:36:27;;;;;;;29.90;18.33;;;17.10;89.80;;;;;;4993957;28;20958;-50
2022/09/15 04:38:54;;;;;;;29.30;17.33;;;17.10;89.80;;;;;;5000617;28;20470;-50
2022/09/15 04:41:21;;;;;;;24.83;14.70;;;17.10;89.80;;;;;;5003986;28;20492;-50
2022/09/15 04:43:48;;;;;;;26.17;15.20;;;17.10;89.80;;;;;;5003710;28;21297;-50
2022/09/15 04:46:17;;;;;;;22.07;14.27;;;17.00;89.80;;;;;;5000832;28;20522;-50
2022/09/15 04:48:44;;;;;;;21.97;14.17;;;17.00;89.80;;;;;;4983622;28;20931;-50
2022/09/15 04:51:15;;;;;;;25.53;14.90;;;16.90;89.80;;;;;;4981628;28;20453;-50
2022/09/15 04:53:42;;;;;;;20.33;12.90;;;17.00;89.80;;;;;;4987503;28;21040;-50
2022/09/15 04:56:11;;;;;;;20.07;11.97;;;16.90;89.80;;;;;;4987204;28;20555;-50
2022/09/15 04:58:39;;;;;;;24.67;13.50;;;16.90;89.80;;;;;;4998644;28;20577;-50
2022/09/15 05:01:15;;;;;;;16.03;11.20;;;16.90;89.80;;;;;;5001738;28;20896;-50
2022/09/15 05:03:43;;;;;;;15.97;11.23;;;16.90;89.80;;;;;;4988016;28;21374;-50
2022/09/15 05:06:12;;;;;;;18.13;10.30;;;16.80;89.80;;;;;;5003218;28;20464;-50
2022/09/15 05:08:39;;;;;;;14.73;10.07;;;16.80;89.80;;;;;;5002235;28;20472;-50
2022/09/15 05:11:08;;;;;;;16.07;10.10;;;16.80;89.80;;;;;;5002691;28;20975;-50
2022/09/15 05:13:35;;;;;;;18.47;10.40;;;16.80;89.80;;;;;;4994688;28;20473;-50
2022/09/15 05:16:04;;;;;;;17.60;10.70;;;16.80;89.80;;;;;;5002745;28;20510;-50
2022/09/15 05:18:32;;;;;;;19.07;9.97;;;16.80;89.80;;;;;;5001313;28;20508;-50
2022/09/15 05:21:00;;;;;;;15.40;9.43;;;16.80;89.80;;;;;;4998621;28;20480;-50
2022/09/15 05:23:27;;;;;;;12.63;9.53;;;16.80;89.80;;;;;;4995315;28;20551;-50
2022/09/15 05:25:55;;;;;;;13.60;10.23;;;16.70;89.80;;;;;;5001424;28;20564;-50
2022/09/15 05:28:23;;;;;;;15.53;9.40;;;16.70;89.80;;;;;;5001642;28;21013;-50
2022/09/15 05:30:51;;;;;;;16.73;9.77;;;16.70;89.80;;;;;;4997244;28;20555;-50
2022/09/15 05:33:19;;;;;;;18.23;10.00;;;16.60;89.80;;;;;;5002767;28;20904;-50
2022/09/15 05:35:57;;;;;;;14.97;9.80;;;16.60;89.80;;;;;;4994139;28;20577;-50
2022/09/15 05:38:26;;;;;;;18.13;10.00;;;16.60;89.80;;;;;;4996081;28;20537;-50
2022/09/15 05:40:53;;;;;;;11.90;8.70;;;16.50;89.80;;;;;;4976444;28;20555;-50
2022/09/15 05:43:20;;;;;;;13.53;8.97;;;16.50;89.80;;;;;;5004256;28;20495;-50
2022/09/15 05:45:53;;;;;;;15.37;8.33;;;16.50;89.80;;;;;;5004190;28;20506;-50
2022/09/15 05:48:20;;;;;;;13.90;9.33;;;16.50;89.80;;;;;;4985580;28;20538;-50
2022/09/15 05:50:49;;;;;;;12.90;9.07;;;16.40;89.80;;;;;;4985624;28;20460;-50
2022/09/15 05:53:16;;;;;;;12.80;8.20;;;16.50;89.80;;;;;;4998520;28;20479;-50
2022/09/15 05:55:43;;;;;;;17.80;9.37;;;16.50;89.80;;;;;;5000970;28;20596;-50
2022/09/15 05:58:10;;;;;;;16.70;8.90;;;16.50;89.80;;;;;;4998658;28;20515;-50
2022/09/15 06:00:37;;;;;;;14.57;7.83;;;16.50;89.80;;;;;;5000958;28;20614;-50
2022/09/15 06:03:04;;;;;;;12.77;7.93;;;16.50;89.80;;;;;;4982717;28;20464;-50
2022/09/15 06:05:30;;;;;;;9.73;8.07;;;16.40;89.80;;;;;;4997778;28;20504;-50
2022/09/15 06:07:57;;;;;;;14.73;8.80;;;16.40;89.80;;;;;;4999523;28;20511;-50
2022/09/15 06:10:24;;;;;;;11.70;8.00;;;16.40;89.80;;;;;;4979583;28;20484;-50
2022/09/15 06:12:55;;;;;;;7.80;6.60;;;16.40;89.80;;;;;;4986219;28;20456;-50
2022/09/15 06:15:23;;;;;;;9.27;5.70;;;16.40;89.80;;;;;;4984405;28;21143;-50
2022/09/15 06:17:50;;;;;;;9.20;6.17;;;16.50;89.80;;;;;;5000184;28;20492;-50
2022/09/15 06:20:18;;;;;;;9.57;6.20;;;16.40;89.80;;;;;;4999842;28;20468;-50
2022/09/15 06:22:44;;;;;;;8.57;6.30;;;16.40;89.80;;;;;;4999626;28;20542;-50
2022/09/15 06:25:12;;;;;;;8.90;6.70;;;16.40;89.80;;;;;;5001451;28;20444;-50
2022/09/15 06:27:39;;;;;;;10.70;6.73;;;16.40;89.80;;;;;;5002897;28;20460;-50
2022/09/15 06:30:07;;;;;;;7.80;5.90;;;16.40;89.80;;;;;;5002431;28;20885;-50
2022/09/15 06:32:35;;;;;;;9.10;5.60;;;16.30;89.80;;;;;;5003831;28;20468;-50
2022/09/15 06:35:06;;;;;;;11.50;6.13;;;16.30;89.80;;;;;;4996917;28;20552;-50
2022/09/15 06:37:33;;;;;;;9.40;5.90;;;16.40;89.80;;;;;;5005225;28;20468;-50
2022/09/15 06:40:00;;;;;;;8.27;5.90;;;16.40;89.80;;;;;;5002857;28;20472;-50
2022/09/15 06:42:27;;;;;;;7.07;5.97;;;16.30;89.80;;;;;;5001941;28;20488;-50
2022/09/15 06:44:57;;;;;;;6.53;5.20;;;16.30;89.80;;;;;;4981830;28;20475;-51
2022/09/15 06:47:24;;;;;;;5.77;4.73;;;16.30;89.80;;;;;;5000143;28;20483;-50
2022/09/15 06:49:52;;;;;;;6.73;5.30;;;16.30;89.80;;;;;;5000078;28;20518;-50
2022/09/15 06:52:18;;;;;;;9.40;5.20;;;16.40;89.80;;;;;;4987427;28;20521;-50
2022/09/15 06:54:45;;;;;;;6.73;4.63;;;16.30;89.80;;;;;;5002446;28;20591;-50
2022/09/15 06:57:12;;;;;;;8.53;5.30;;;16.30;89.80;;;;;;4984442;28;20524;-50
2022/09/15 06:59:39;;;;;;;7.10;5.30;;;16.30;89.80;;;;;;5005390;28;20561;-50
2022/09/15 07:02:05;;;;;;;12.33;5.57;;;16.40;89.80;;;;;;5004435;28;20523;-50
2022/09/15 07:04:35;;;;;;;15.20;6.50;;;16.40;89.80;;;;;;5002317;28;20487;-50
2022/09/15 07:07:02;;;;;;;7.83;5.30;;;16.40;89.80;;;;;;5001933;28;20475;-50
2022/09/15 07:09:29;;;;;;;6.60;5.33;;;16.40;89.80;;;;;;5007233;28;20468;-50
2022/09/15 07:11:55;;;;;;;7.87;4.80;;;16.50;89.80;;;;;;5007067;28;20495;-50
2022/09/15 07:14:22;;;;;;;13.40;5.50;;;16.50;89.80;;;;;;5006692;28;20444;-50
2022/09/15 07:16:49;;;;;;;9.90;5.80;;;16.40;89.80;;;;;;5016856;28;20468;-48
2022/09/15 07:19:15;;;;;;;6.90;4.50;;;16.50;89.80;;;;;;5002424;28;20460;-48
2022/09/15 07:21:42;;;;;;;5.60;4.97;;;16.50;89.80;;;;;;5016192;28;20496;-48
2022/09/15 07:24:09;;;;;;;11.43;6.87;;;16.50;89.80;;;;;;5007633;28;20494;-48
2022/09/15 07:26:37;;;;;;;7.50;5.97;;;16.50;89.80;;;;;;5004633;28;20971;-47
2022/09/15 07:29:05;;;;;;;9.00;5.60;;;16.50;89.80;;;;;;4993271;28;20933;-48
2022/09/15 07:31:34;;;;;;;7.27;5.17;;;16.50;89.80;;;;;;5013930;28;20528;-48
2022/09/15 07:34:02;;;;;;;9.60;5.60;;;16.50;89.80;;;;;;5010443;28;20870;-48
2022/09/15 07:36:32;;;;;;;7.07;5.57;;;16.50;89.80;;;;;;4994922;28;20461;-48
2022/09/15 07:38:59;;;;;;;7.63;5.20;;;16.60;89.80;;;;;;5010571;28;20510;-48
2022/09/15 07:41:28;;;;;;;8.07;5.17;;;16.60;89.80;;;;;;5016193;28;20491;-51
2022/09/15 07:43:57;;;;;;;7.17;5.53;;;16.60;89.80;;;;;;5013826;28;20518;-49
2022/09/15 07:46:25;;;;;;;10.37;5.60;;;16.60;89.20;;;;;;4998771;28;20449;-48
2022/09/15 07:48:56;;;;;;;6.57;5.17;;;16.60;89.10;;;;;;5014645;28;20460;-48
2022/09/15 07:51:24;;;;;;;5.57;4.63;;;16.70;89.30;;;;;;5016247;28;20464;-48
2022/09/15 07:53:51;;;;;;;15.80;5.50;;;16.70;89.30;;;;;;5015681;28;20511;-48
2022/09/15 07:56:19;;;;;;;9.30;4.67;;;16.80;89.00;;;;;;5012797;28;20970;-48
2022/09/15 07:58:47;;;;;;;9.37;4.70;;;16.70;88.10;;;;;;5016202;28;20484;-48
2022/09/15 08:01:15;;;;;;;7.03;5.07;;;16.80;88.50;;;;;;5015286;28;20464;-47
2022/09/15 08:03:53;;;;;;;7.87;5.00;;;16.80;88.70;;;;;;5021902;28;20460;-49
2022/09/15 08:06:23;;;;;;;6.70;5.50;;;16.80;88.80;;;;;;4991917;28;20496;-49
2022/09/15 08:08:50;;;;;;;5.33;4.87;;;16.80;89.10;;;;;;5016170;28;20495;-49
2022/09/15 08:11:22;;;;;;;8.90;5.27;;;16.80;88.90;;;;;;5010587;28;20546;-50
2022/09/15 08:13:51;;;;;;;7.00;5.03;;;16.80;88.00;;;;;;4984066;28;20522;-50
2022/09/15 08:16:21;;;;;;;7.40;5.27;;;16.80;89.00;;;;;;4999080;28;20460;-50
2022/09/15 08:18:50;;;;;;;6.30;5.10;;;16.90;89.10;;;;;;5002296;28;20461;-50
2022/09/15 08:21:19;;;;;;;6.43;5.83;;;17.00;89.00;;;;;;4986218;28;21050;-50
2022/09/15 08:23:50;;;;;;;7.70;5.53;;;17.10;89.10;;;;;;4997168;28;20842;-50
2022/09/15 08:26:17;;;;;;;8.77;4.90;;;17.10;89.00;;;;;;4999731;28;20489;-50
2022/09/15 08:28:44;;;;;;;7.63;5.30;;;17.20;88.80;;;;;;4984874;28;20861;-50
2022/09/15 08:31:13;;;;;;;7.00;4.90;;;17.20;88.70;;;;;;5000953;28;20468;-50
2022/09/15 08:33:40;;;;;;;7.30;4.67;;;17.20;88.30;;;;;;5002070;28;20957;-50
2022/09/15 08:36:11;;;;;;;7.10;5.83;;;17.10;87.50;;;;;;4994350;28;21099;-50
2022/09/15 08:38:39;;;;;;;5.73;5.00;;;17.10;87.40;;;;;;5004474;28;20865;-50
2022/09/15 08:41:28;;;;;;;5.73;5.13;;;17.10;87.20;;;;;;4986936;28;20519;-50
2022/09/15 08:44:20;;;;;;;8.13;5.47;;;17.20;86.30;;;;;;5000784;28;20989;-50
2022/09/15 08:46:51;;;;;;;7.30;5.27;;;17.20;86.70;;;;;;4997285;28;20496;-50
2022/09/15 08:49:27;;;;;;;8.53;7.37;;;17.20;86.40;;;;;;4997719;28;20472;-50
2022/09/15 08:52:30;;;;;;;9.07;6.50;;;17.20;86.30;;;;;;4996630;28;20460;-50
2022/09/15 08:55:01;;;;;;;7.70;6.90;;;17.20;86.40;;;;;;4983340;28;20539;-50
2022/09/15 08:57:28;;;;;;;6.93;6.30;;;17.20;85.80;;;;;;4978894;28;20579;-51
2022/09/15 08:59:57;;;;;;;10.93;7.87;;;17.30;85.20;;;;;;4984067;28;20495;-50
2022/09/15 09:02:53;;;;;;;7.57;6.77;;;17.20;84.20;;;;;;5000971;28;21028;-50
2022/09/15 09:05:58;;;;;;;10.50;7.40;;;17.30;84.70;;;;;;4977420;28;20530;-51
2022/09/15 09:08:43;;;;;;;7.97;7.17;;;17.40;85.30;;;;;;5000791;28;20495;-48
2022/09/15 09:11:44;;;;;;;7.53;6.73;;;17.40;85.90;;;;;;5003898;28;20467;-48
2022/09/15 09:14:35;;;;;;;9.50;6.83;;;17.50;85.70;;;;;;5007896;28;20996;-48
2022/09/15 09:17:02;;;;;;;7.40;5.80;;;17.70;85.40;;;;;;5010664;28;20464;-49
2022/09/15 09:19:54;;;;;;;8.40;6.70;;;17.70;85.60;;;;;;5013085;28;20482;-48
2022/09/15 09:22:24;;;;;;;10.73;6.60;;;17.70;85.60;;;;;;5015762;28;20524;-50
2022/09/15 09:24:53;;;;;;;9.60;5.90;;;17.80;85.60;;;;;;5010068;28;20463;-48
2022/09/15 09:27:27;;;;;;;14.03;7.60;;;17.90;85.60;;;;;;5002247;28;21047;-49
2022/09/15 09:30:09;;;;;;;11.13;7.13;;;17.90;84.80;;;;;;5013239;28;20491;-48
2022/09/15 09:32:47;;;;;;;10.83;8.00;;;18.00;84.20;;;;;;5014097;28;20460;-49
2022/09/15 09:35:42;;;;;;;11.50;7.43;;;18.00;83.20;;;;;;5012697;28;21195;-48
2022/09/15 09:38:11;;;;;;;13.33;8.80;;;18.10;82.50;;;;;;5009574;28;20511;-48
2022/09/15 09:40:41;;;;;;;10.50;8.93;;;18.10;82.10;;;;;;4996934;28;20479;-48
2022/09/15 09:43:09;;;;;;;9.87;7.40;;;18.10;82.80;;;;;;5011122;28;20476;-49
2022/09/15 09:45:36;;;;;;;11.80;8.73;;;18.00;83.50;;;;;;5013523;28;20461;-48
2022/09/15 09:48:19;;;;;;;15.03;7.73;;;18.00;83.60;;;;;;5012731;28;20456;-48
2022/09/15 09:50:46;;;;;;;13.00;8.93;;;18.10;82.40;;;;;;5001173;28;21035;-49
2022/09/15 09:53:22;;;;;;;13.60;7.30;;;18.10;82.60;;;;;;5017304;28;20472;-48
2022/09/15 09:55:48;;;;;;;8.83;7.30;;;18.20;82.00;;;;;;5016486;28;20483;-48
2022/09/15 09:58:21;;;;;;;9.30;7.57;;;18.30;81.30;;;;;;5011630;28;21112;-48
2022/09/15 10:00:49;;;;;;;11.23;6.83;;;18.40;81.10;;;;;;5000717;28;20503;-48
2022/09/15 10:03:24;;;;;;;10.97;7.77;;;18.50;79.40;;;;;;4980157;28;20661;-48
2022/09/15 10:06:00;;;;;;;10.03;7.93;;;18.50;79.30;;;;;;4989778;28;20557;-47
2022/09/15 10:08:27;;;;;;;12.60;7.60;;;18.60;79.60;;;;;;5003526;28;20574;-48
2022/09/15 10:11:13;;;;;;;9.80;8.57;;;18.70;79.20;;;;;;5001990;28;20535;-47
2022/09/15 10:13:51;;;;;;;12.43;8.83;;;18.70;79.20;;;;;;5001320;28;20566;-47
2022/09/15 10:16:18;;;;;;;11.13;9.00;;;18.90;76.20;;;;;;4984362;28;20514;-47
2022/09/15 10:18:48;;;;;;;9.97;8.63;;;18.90;76.50;;;;;;4999547;28;20472;-48
2022/09/15 10:21:23;;;;;;;12.00;8.70;;;18.90;77.10;;;;;;5002403;28;20474;-48
2022/09/15 10:23:50;;;;;;;10.93;8.70;;;18.90;78.10;;;;;;5004090;28;20838;-47
2022/09/15 10:26:32;;;;;;;11.53;8.60;;;18.90;78.80;;;;;;5005840;28;20553;-48
2022/09/15 10:29:10;;;;;;;11.97;9.00;;;19.10;79.50;;;;;;4989021;28;20468;-48
2022/09/15 10:31:37;;;;;;;11.03;8.87;;;19.30;78.60;;;;;;4999905;28;20586;-47
2022/09/15 10:34:22;;;;;;;10.53;9.03;;;19.50;77.10;;;;;;4999342;28;20836;-47
2022/09/15 10:36:50;;;;;;;12.80;8.37;;;19.60;77.40;;;;;;4998456;28;20461;-48
2022/09/15 10:39:37;;;;;;;11.67;8.30;;;19.50;77.50;;;;;;5003506;28;20499;-48
2022/09/15 10:42:17;;;;;;;13.30;8.90;;;19.40;77.20;;;;;;5001011;28;20562;-48
2022/09/15 10:44:55;;;;;;;10.70;9.07;;;19.30;77.90;;;;;;4983149;28;20596;-48
2022/09/15 10:47:44;;;;;;;14.10;9.10;;;19.30;78.00;;;;;;5007584;28;20480;-48
2022/09/15 10:50:54;;;;;;;10.83;8.87;;;19.30;78.40;;;;;;4990157;28;20982;-48
2022/09/15 10:53:33;;;;;;;11.00;9.07;;;19.20;76.90;;;;;;5004799;28;21001;-48
2022/09/15 10:56:21;;;;;;;9.40;8.40;;;19.10;77.30;;;;;;5001784;28;20500;-48
2022/09/15 10:59:27;;;;;;;9.93;8.87;;;19.00;77.40;;;;;;5003729;28;20570;-48
2022/09/15 11:02:00;;;;;;;12.00;9.10;;;18.90;77.90;;;;;;5003842;28;20487;-48
2022/09/15 11:04:43;;;;;;;17.33;9.77;;;18.80;77.40;;;;;;5002978;28;20460;-48
2022/09/15 11:07:49;;;;;;;10.70;9.30;;;18.80;77.30;;;;;;5003896;28;20459;-48
2022/09/15 11:10:16;;;;;;;13.40;9.80;;;18.80;76.20;;;;;;4965226;28;20463;-48
2022/09/15 11:12:50;;;;;;;12.10;8.97;;;18.80;76.60;;;;;;4982613;28;20522;-48
2022/09/15 11:15:48;;;;;;;12.80;10.00;;;18.80;76.10;;;;;;4982459;28;20467;-48
2022/09/15 11:18:42;;;;;;;12.17;10.30;;;18.70;77.00;;;;;;5002280;28;20619;-48
2022/09/15 11:21:25;;;;;;;13.43;9.30;;;18.70;76.90;;;;;;5003600;28;20475;-48
2022/09/15 11:24:09;;;;;;;10.63;9.53;;;18.70;75.80;;;;;;5006926;28;20579;-48
2022/09/15 11:26:42;;;;;;;11.50;9.97;;;18.60;77.00;;;;;;5006443;28;20523;-48
2022/09/15 11:29:21;;;;;;;13.30;10.27;;;18.70;76.80;;;;;;5000943;28;20460;-48
2022/09/15 11:31:53;;;;;;;10.57;9.47;;;18.70;74.70;;;;;;5002982;28;20555;-48
2022/09/15 11:34:25;;;;;;;13.73;11.13;;;18.70;75.60;;;;;;5000513;28;20852;-48
2022/09/15 11:37:17;;;;;;;14.37;11.40;;;18.70;76.70;;;;;;5005525;28;20500;-48
2022/09/15 11:39:54;;;;;;;16.90;10.50;;;18.80;75.60;;;;;;5002683;28;20592;-48
2022/09/15 11:43:07;;;;;;;11.47;10.23;;;18.80;75.90;;;;;;4998178;28;21596;-48
2022/09/15 11:45:44;;;;;;;11.67;10.47;;;18.90;75.50;;;;;;4992049;28;20483;-48
2022/09/15 11:48:17;;;;;;;12.60;8.60;;;18.90;76.10;;;;;;5000194;28;21528;-48
2022/09/15 11:50:47;;;;;;;12.30;8.50;;;18.80;77.30;;;;;;5001784;28;20564;-48
2022/09/15 11:53:32;;;;;;;11.67;9.93;;;18.80;77.80;;;;;;4998288;28;20461;-48
2022/09/15 11:55:59;;;;;;;12.70;9.87;;;18.80;77.30;;;;;;4999736;28;20464;-48
2022/09/15 11:58:49;;;;;;;14.73;10.33;;;18.80;75.90;;;;;;5002295;28;20524;-48
2022/09/15 12:01:20;;;;;;;10.90;9.10;;;18.70;76.50;;;;;;5003901;28;20530;-48
2022/09/15 12:03:58;;;;;;;12.40;9.23;;;18.80;77.10;;;;;;5001980;28;20499;-48
2022/09/15 12:06:42;;;;;;;9.93;7.53;;;18.80;76.70;;;;;;5003066;28;20878;-48
2022/09/15 12:09:15;;;;;;;7.70;6.90;;;18.90;75.60;;;;;;5002946;28;20551;-48
2022/09/15 12:11:54;;;;;;;9.57;8.20;;;18.90;75.60;;;;;;5001270;28;20461;-48
2022/09/15 12:14:26;;;;;;;8.17;7.07;;;19.00;73.60;;;;;;5003244;28;20468;-48
2022/09/15 12:16:54;;;;;;;12.60;7.43;;;19.00;72.00;;;;;;5002522;28;20547;-48
2022/09/15 12:19:45;;;;;;;9.77;7.50;;;19.00;74.40;;;;;;5004134;28;20555;-48
2022/09/15 12:22:27;;;;;;;15.87;8.00;;;19.00;75.00;;;;;;4984478;28;20472;-48
2022/09/15 12:25:29;;;;;;;9.73;5.80;;;19.00;75.80;;;;;;5003209;28;20547;-48
2022/09/15 12:28:21;;;;;;;5.57;4.87;;;19.00;75.30;;;;;;5000781;28;20468;-48
2022/09/15 12:31:04;;;;;;;5.43;4.70;;;19.10;73.00;;;;;;4998608;28;20487;-48
2022/09/15 12:33:52;;;;;;;6.63;4.83;;;19.10;72.90;;;;;;5001968;28;20792;-48
2022/09/15 12:36:43;;;;;;;5.57;4.23;;;19.10;72.60;;;;;;5001383;28;20547;-48
2022/09/15 12:39:28;;;;;;;6.87;4.70;;;19.10;71.50;;;;;;4984725;28;20473;-48
2022/09/15 12:41:59;;;;;;;6.07;4.40;;;19.10;71.20;;;;;;5001469;28;20530;-48
2022/09/15 12:44:34;;;;;;;5.23;4.73;;;19.20;69.60;;;;;;5000738;28;20622;-48
2022/09/15 12:47:04;;;;;;;5.33;4.73;;;19.20;70.90;;;;;;4999724;28;21051;-48
2022/09/15 12:49:34;;;;;;;7.20;4.63;;;19.20;68.60;;;;;;4987663;28;20474;-48
2022/09/15 12:52:05;;;;;;;5.57;4.60;;;19.20;71.40;;;;;;4998784;28;20849;-48
2022/09/15 12:54:34;;;;;;;6.00;5.13;;;19.10;72.30;;;;;;5002133;28;20474;-47
2022/09/15 12:57:02;;;;;;;8.03;5.10;;;19.10;72.90;;;;;;4986625;28;20557;-48
2022/09/15 12:59:29;;;;;;;5.87;5.00;;;19.10;71.00;;;;;;4999898;28;20550;-48
2022/09/15 13:01:56;;;;;;;8.63;5.50;;;19.10;71.70;;;;;;4966903;28;20534;-48
2022/09/15 13:04:23;;;;;;;7.27;5.23;;;19.10;71.60;;;;;;4980676;28;20492;-47
2022/09/15 13:07:15;;;;;;;6.53;5.87;;;19.20;70.40;;;;;;5000965;28;20479;-48
2022/09/15 13:09:51;;;;;;;5.67;5.17;;;19.20;69.50;;;;;;4978829;28;21322;-48
2022/09/15 13:12:19;;;;;;;7.17;6.33;;;19.30;68.70;;;;;;4999434;28;20783;-48